sensor_id;sensor_type;location;lat;lon;timestamp;temperature;humidity
4904;DHT22;2467;48.142;11.616;2023-08-31T00:00:00;15.30;99.90
4904;DHT22;2467;48.142;11.616;2023-08-31T00:00:32;15.30;99.90
4904;DHT22;2467;48.142;11.616;2023-08-31T00:01:05;15.30;99.90
4904;DHT22;2467;48.142;11.616;2023-08-31T00:01:38;15.40;99.90
4904;DHT22;2467;48.142;11.616;2023-08-31T00:02:10;15.30;99.90
4904;DHT22;2467;48.142;11.616;2023-08-31T00:02:42;15.30;99.90
4904;DHT22;2467;48.142;11.616;2023-08-31T00:03:14;15.30;99.90
4904;DHT22;2467;48.142;11.616;2023-08-31T00:03:48;15.30;99.90
4904;DHT22;2467;48.142;11.616;2023-08-31T00:04:21;15.30;99.90
4904;DHT22;2467;48.142;11.616;2023-08-31T00:04:53;15.30;99.90
4904;DHT22;2467;48.142;11.616;2023-08-31T00:05:25;15.30;99.90
4904;DHT22;2467;48.142;11.616;2023-08-31T00:06:02;15.30;99.90
4904;DHT22;2467;48.142;11.616;2023-08-31T00:06:34;15.30;99.90
4904;DHT22;2467;48.142;11.616;2023-08-31T00:07:06;15.30;99.90
4904;DHT22;2467;48.142;11.616;2023-08-31T00:07:39;15.30;99.90
4904;DHT22;2467;48.142;11.616;2023-08-31T00:08:11;15.30;99.90
4904;DHT22;2467;48.142;11.616;2023-08-31T00:08:43;15.20;99.90
4904;DHT22;2467;48.142;11.616;2023-08-31T00:09:16;15.20;99.90
4904;DHT22;2467;48.142;11.616;2023-08-31T00:09:48;15.20;99.90
4904;DHT22;2467;48.142;11.616;2023-08-31T00:10:21;15.20;99.90
4904;DHT22;2467;48.142;11.616;2023-08-31T00:10:56;15.20;99.90
4904;DHT22;2467;48.142;11.616;2023-08-31T00:11:30;15.20;99.90
4904;DHT22;2467;48.142;11.616;2023-08-31T00:12:02;15.20;99.90
4904;DHT22;2467;48.142;11.616;2023-08-31T00:12:34;15.20;99.90
4904;DHT22;2467;48.142;11.616;2023-08-31T00:13:07;15.20;99.90
4904;DHT22;2467;48.142;11.616;2023-08-31T00:13:40;15.20;99.90
4904;DHT22;2467;48.142;11.616;2023-08-31T00:14:12;15.20;99.90
4904;DHT22;2467;48.142;11.616;2023-08-31T00:14:44;15.20;99.90
4904;DHT22;2467;48.142;11.616;2023-08-31T00:15:17;15.10;99.90
4904;DHT22;2467;48.142;11.616;2023-08-31T00:15:48;15.10;99.90
4904;DHT22;2467;48.142;11.616;2023-08-31T00:16:24;15.10;99.90
4904;DHT22;2467;48.142;11.616;2023-08-31T00:16:57;15.10;99.90
4904;DHT22;2467;48.142;11.616;2023-08-31T00:17:30;15.10;99.90
4904;DHT22;2467;48.142;11.616;2023-08-31T00:18:03;15.10;99.90
4904;DHT22;2467;48.142;11.616;2023-08-31T00:18:35;15.10;99.90
4904;DHT22;2467;48.142;11.616;2023-08-31T00:19:07;15.10;99.90
4904;DHT22;2467;48.142;11.616;2023-08-31T00:19:41;15.10;99.90
4904;DHT22;2467;48.142;11.616;2023-08-31T00:20:13;15.10;99.90
4904;DHT22;2467;48.142;11.616;2023-08-31T00:20:45;15.10;99.90
4904;DHT22;2467;48.142;11.616;2023-08-31T00:21:17;15.10;99.90
4904;DHT22;2467;48.142;11.616;2023-08-31T00:21:50;15.10;99.90
4904;DHT22;2467;48.142;11.616;2023-08-31T00:22:22;15.10;99.90
4904;DHT22;2467;48.142;11.616;2023-08-31T00:22:54;15.10;99.90
4904;DHT22;2467;48.142;11.616;2023-08-31T00:23:26;15.10;99.90
4904;DHT22;2467;48.142;11.616;2023-08-31T00:23:59;15.10;99.90
4904;DHT22;2467;48.142;11.616;2023-08-31T00:24:30;15.10;99.90
4904;DHT22;2467;48.142;11.616;2023-08-31T00:25:05;15.10;99.90
4904;DHT22;2467;48.142;11.616;2023-08-31T00:25:37;15.10;99.90
4904;DHT22;2467;48.142;11.616;2023-08-31T00:26:10;15.10;99.90
4904;DHT22;2467;48.142;11.616;2023-08-31T00:26:42;15.10;99.90
4904;DHT22;2467;48.142;11.616;2023-08-31T00:27:14;15.10;99.90
4904;DHT22;2467;48.142;11.616;2023-08-31T00:27:46;15.10;99.90
4904;DHT22;2467;48.142;11.616;2023-08-31T00:28:20;15.10;99.90
4904;DHT22;2467;48.142;11.616;2023-08-31T00:28:52;15.10;99.90
4904;DHT22;2467;48.142;11.616;2023-08-31T00:29:25;15.10;99.90
4904;DHT22;2467;48.142;11.616;2023-08-31T00:29:57;15.10;99.90
4904;DHT22;2467;48.142;11.616;2023-08-31T00:30:30;15.00;99.90
4904;DHT22;2467;48.142;11.616;2023-08-31T00:31:02;15.00;99.90
4904;DHT22;2467;48.142;11.616;2023-08-31T00:31:36;15.00;99.90
4904;DHT22;2467;48.142;11.616;2023-08-31T00:32:08;15.00;99.90
4904;DHT22;2467;48.142;11.616;2023-08-31T00:32:40;15.00;99.90
4904;DHT22;2467;48.142;11.616;2023-08-31T00:33:14;15.00;99.90
4904;DHT22;2467;48.142;11.616;2023-08-31T00:33:46;15.00;99.90
4904;DHT22;2467;48.142;11.616;2023-08-31T00:34:20;15.00;99.90
4904;DHT22;2467;48.142;11.616;2023-08-31T00:34:53;15.00;99.90
4904;DHT22;2467;48.142;11.616;2023-08-31T00:35:26;15.00;99.90
4904;DHT22;2467;48.142;11.616;2023-08-31T00:35:59;15.00;99.90
4904;DHT22;2467;48.142;11.616;2023-08-31T00:36:33;15.00;99.90
4904;DHT22;2467;48.142;11.616;2023-08-31T00:37:05;15.00;99.90
4904;DHT22;2467;48.142;11.616;2023-08-31T00:37:38;15.00;99.90
4904;DHT22;2467;48.142;11.616;2023-08-31T00:38:10;15.00;99.90
4904;DHT22;2467;48.142;11.616;2023-08-31T00:38:42;15.00;99.90
4904;DHT22;2467;48.142;11.616;2023-08-31T00:39:14;14.90;99.90
4904;DHT22;2467;48.142;11.616;2023-08-31T00:39:46;15.00;99.90
4904;DHT22;2467;48.142;11.616;2023-08-31T00:40:18;15.00;99.90
4904;DHT22;2467;48.142;11.616;2023-08-31T00:40:50;15.00;99.90
4904;DHT22;2467;48.142;11.616;2023-08-31T00:41:22;15.00;99.90
4904;DHT22;2467;48.142;11.616;2023-08-31T00:41:54;15.00;99.90
4904;DHT22;2467;48.142;11.616;2023-08-31T00:42:27;15.00;99.90
4904;DHT22;2467;48.142;11.616;2023-08-31T00:43:01;15.00;99.90
4904;DHT22;2467;48.142;11.616;2023-08-31T00:43:33;15.00;99.90
4904;DHT22;2467;48.142;11.616;2023-08-31T00:44:05;15.00;99.90
4904;DHT22;2467;48.142;11.616;2023-08-31T00:44:39;15.00;99.90
4904;DHT22;2467;48.142;11.616;2023-08-31T00:45:12;15.00;99.90
4904;DHT22;2467;48.142;11.616;2023-08-31T00:45:44;15.00;99.90
4904;DHT22;2467;48.142;11.616;2023-08-31T00:46:17;15.00;99.90
4904;DHT22;2467;48.142;11.616;2023-08-31T00:46:49;15.00;99.90
4904;DHT22;2467;48.142;11.616;2023-08-31T00:47:21;15.00;99.90
4904;DHT22;2467;48.142;11.616;2023-08-31T00:47:54;15.00;99.90
4904;DHT22;2467;48.142;11.616;2023-08-31T00:48:28;15.00;99.90
4904;DHT22;2467;48.142;11.616;2023-08-31T00:49:00;15.00;99.90
4904;DHT22;2467;48.142;11.616;2023-08-31T00:49:33;15.00;99.90
4904;DHT22;2467;48.142;11.616;2023-08-31T00:50:08;15.00;99.90
4904;DHT22;2467;48.142;11.616;2023-08-31T00:50:41;15.00;99.90
4904;DHT22;2467;48.142;11.616;2023-08-31T00:51:13;15.00;99.90
4904;DHT22;2467;48.142;11.616;2023-08-31T00:51:45;15.00;99.90
4904;DHT22;2467;48.142;11.616;2023-08-31T00:52:20;15.00;99.90
4904;DHT22;2467;48.142;11.616;2023-08-31T00:52:53;14.90;99.90
4904;DHT22;2467;48.142;11.616;2023-08-31T00:53:25;14.90;99.90
4904;DHT22;2467;48.142;11.616;2023-08-31T00:53:58;14.90;99.90
4904;DHT22;2467;48.142;11.616;2023-08-31T00:54:30;14.90;99.90
4904;DHT22;2467;48.142;11.616;2023-08-31T00:55:03;14.90;99.90
4904;DHT22;2467;48.142;11.616;2023-08-31T00:55:36;14.80;99.90
4904;DHT22;2467;48.142;11.616;2023-08-31T00:56:10;14.80;99.90
4904;DHT22;2467;48.142;11.616;2023-08-31T00:56:42;14.80;99.90
4904;DHT22;2467;48.142;11.616;2023-08-31T00:57:14;14.80;99.90
4904;DHT22;2467;48.142;11.616;2023-08-31T00:57:46;14.80;99.90
4904;DHT22;2467;48.142;11.616;2023-08-31T00:58:18;14.80;99.90
4904;DHT22;2467;48.142;11.616;2023-08-31T00:58:51;14.80;99.90
4904;DHT22;2467;48.142;11.616;2023-08-31T00:59:23;14.80;99.90
4904;DHT22;2467;48.142;11.616;2023-08-31T00:59:55;14.80;99.90
4904;DHT22;2467;48.142;11.616;2023-08-31T01:00:37;14.80;99.90
4904;DHT22;2467;48.142;11.616;2023-08-31T01:01:17;14.80;99.90
4904;DHT22;2467;48.142;11.616;2023-08-31T01:01:57;14.80;99.90
4904;DHT22;2467;48.142;11.616;2023-08-31T01:02:36;14.80;99.90
4904;DHT22;2467;48.142;11.616;2023-08-31T01:03:30;14.90;99.90
4904;DHT22;2467;48.142;11.616;2023-08-31T01:04:12;14.80;99.90
4904;DHT22;2467;48.142;11.616;2023-08-31T01:04:55;14.80;99.90
4904;DHT22;2467;48.142;11.616;2023-08-31T01:05:37;14.80;99.90
4904;DHT22;2467;48.142;11.616;2023-08-31T01:06:15;14.80;99.90
4904;DHT22;2467;48.142;11.616;2023-08-31T01:07:06;14.80;99.90
4904;DHT22;2467;48.142;11.616;2023-08-31T01:07:50;14.80;99.90
4904;DHT22;2467;48.142;11.616;2023-08-31T01:08:31;14.80;99.90
4904;DHT22;2467;48.142;11.616;2023-08-31T01:09:12;14.80;99.90
4904;DHT22;2467;48.142;11.616;2023-08-31T01:09:53;14.80;99.90
4904;DHT22;2467;48.142;11.616;2023-08-31T01:10:34;14.80;99.90
4904;DHT22;2467;48.142;11.616;2023-08-31T01:11:16;14.80;99.90
4904;DHT22;2467;48.142;11.616;2023-08-31T01:11:56;14.80;99.90
4904;DHT22;2467;48.142;11.616;2023-08-31T01:12:36;14.80;99.90
4904;DHT22;2467;48.142;11.616;2023-08-31T01:13:14;14.80;99.90
4904;DHT22;2467;48.142;11.616;2023-08-31T01:13:51;14.80;99.90
4904;DHT22;2467;48.142;11.616;2023-08-31T01:14:25;14.80;99.90
4904;DHT22;2467;48.142;11.616;2023-08-31T01:15:03;14.90;99.90
4904;DHT22;2467;48.142;11.616;2023-08-31T01:15:41;14.80;99.90
4904;DHT22;2467;48.142;11.616;2023-08-31T01:16:13;14.80;99.90
4904;DHT22;2467;48.142;11.616;2023-08-31T01:16:48;14.90;99.90
4904;DHT22;2467;48.142;11.616;2023-08-31T01:17:21;14.90;99.90
4904;DHT22;2467;48.142;11.616;2023-08-31T01:17:55;14.90;99.90
4904;DHT22;2467;48.142;11.616;2023-08-31T01:18:29;14.90;99.90
4904;DHT22;2467;48.142;11.616;2023-08-31T01:19:06;14.90;99.90
4904;DHT22;2467;48.142;11.616;2023-08-31T01:19:48;14.90;99.90
4904;DHT22;2467;48.142;11.616;2023-08-31T01:20:28;14.90;99.90
4904;DHT22;2467;48.142;11.616;2023-08-31T01:21:12;14.90;99.90
4904;DHT22;2467;48.142;11.616;2023-08-31T01:21:50;14.90;99.90
4904;DHT22;2467;48.142;11.616;2023-08-31T01:22:39;14.80;99.90
4904;DHT22;2467;48.142;11.616;2023-08-31T01:23:16;14.90;99.90
4904;DHT22;2467;48.142;11.616;2023-08-31T01:23:52;14.90;99.90
4904;DHT22;2467;48.142;11.616;2023-08-31T01:24:26;14.90;99.90
4904;DHT22;2467;48.142;11.616;2023-08-31T01:24:58;14.90;99.90
4904;DHT22;2467;48.142;11.616;2023-08-31T01:25:34;14.90;99.90
4904;DHT22;2467;48.142;11.616;2023-08-31T01:26:07;14.90;99.90
4904;DHT22;2467;48.142;11.616;2023-08-31T01:26:40;14.90;99.90
4904;DHT22;2467;48.142;11.616;2023-08-31T01:27:13;14.90;99.90
4904;DHT22;2467;48.142;11.616;2023-08-31T01:27:47;14.90;99.90
4904;DHT22;2467;48.142;11.616;2023-08-31T01:28:19;14.90;99.90
4904;DHT22;2467;48.142;11.616;2023-08-31T01:28:51;14.90;99.90
4904;DHT22;2467;48.142;11.616;2023-08-31T01:29:24;14.90;99.90
4904;DHT22;2467;48.142;11.616;2023-08-31T01:29:57;14.90;99.90
4904;DHT22;2467;48.142;11.616;2023-08-31T01:30:30;14.90;99.90
4904;DHT22;2467;48.142;11.616;2023-08-31T01:31:04;14.90;99.90
4904;DHT22;2467;48.142;11.616;2023-08-31T01:31:42;14.90;99.90
4904;DHT22;2467;48.142;11.616;2023-08-31T01:32:14;14.90;99.90
4904;DHT22;2467;48.142;11.616;2023-08-31T01:32:47;14.90;99.90
4904;DHT22;2467;48.142;11.616;2023-08-31T01:33:20;14.90;99.90
4904;DHT22;2467;48.142;11.616;2023-08-31T01:33:51;14.90;99.90
4904;DHT22;2467;48.142;11.616;2023-08-31T01:34:23;14.90;99.90
4904;DHT22;2467;48.142;11.616;2023-08-31T01:34:55;15.00;99.90
4904;DHT22;2467;48.142;11.616;2023-08-31T01:35:34;14.90;99.90
4904;DHT22;2467;48.142;11.616;2023-08-31T01:36:16;14.90;99.90
4904;DHT22;2467;48.142;11.616;2023-08-31T01:36:55;14.90;99.90
4904;DHT22;2467;48.142;11.616;2023-08-31T01:37:33;15.00;99.90
4904;DHT22;2467;48.142;11.616;2023-08-31T01:38:08;15.00;99.90
4904;DHT22;2467;48.142;11.616;2023-08-31T01:38:43;15.00;99.90
4904;DHT22;2467;48.142;11.616;2023-08-31T01:39:23;15.00;99.90
4904;DHT22;2467;48.142;11.616;2023-08-31T01:40:03;15.00;99.90
4904;DHT22;2467;48.142;11.616;2023-08-31T01:40:49;15.00;99.90
4904;DHT22;2467;48.142;11.616;2023-08-31T01:41:25;15.00;99.90
4904;DHT22;2467;48.142;11.616;2023-08-31T01:42:03;15.00;99.90
4904;DHT22;2467;48.142;11.616;2023-08-31T01:42:35;15.10;99.90
4904;DHT22;2467;48.142;11.616;2023-08-31T01:43:08;15.10;99.90
4904;DHT22;2467;48.142;11.616;2023-08-31T01:43:41;15.10;99.90
4904;DHT22;2467;48.142;11.616;2023-08-31T01:44:16;15.10;99.90
4904;DHT22;2467;48.142;11.616;2023-08-31T01:44:50;15.10;99.90
4904;DHT22;2467;48.142;11.616;2023-08-31T01:45:23;15.10;99.90
4904;DHT22;2467;48.142;11.616;2023-08-31T01:45:56;15.20;99.90
4904;DHT22;2467;48.142;11.616;2023-08-31T01:46:30;15.20;99.90
4904;DHT22;2467;48.142;11.616;2023-08-31T01:47:04;15.20;99.90
4904;DHT22;2467;48.142;11.616;2023-08-31T01:47:37;15.20;99.90
4904;DHT22;2467;48.142;11.616;2023-08-31T01:48:10;15.20;99.90
4904;DHT22;2467;48.142;11.616;2023-08-31T01:48:43;15.20;99.90
4904;DHT22;2467;48.142;11.616;2023-08-31T01:49:14;15.30;99.90
4904;DHT22;2467;48.142;11.616;2023-08-31T01:49:46;15.20;99.90
4904;DHT22;2467;48.142;11.616;2023-08-31T01:50:19;15.20;99.90
4904;DHT22;2467;48.142;11.616;2023-08-31T01:50:51;15.20;99.90
4904;DHT22;2467;48.142;11.616;2023-08-31T01:51:23;15.20;99.90
4904;DHT22;2467;48.142;11.616;2023-08-31T01:51:55;15.20;99.90
4904;DHT22;2467;48.142;11.616;2023-08-31T01:52:28;15.20;99.90
4904;DHT22;2467;48.142;11.616;2023-08-31T01:53:00;15.20;99.90
4904;DHT22;2467;48.142;11.616;2023-08-31T01:53:31;15.30;99.90
4904;DHT22;2467;48.142;11.616;2023-08-31T01:54:04;15.20;99.90
4904;DHT22;2467;48.142;11.616;2023-08-31T01:54:38;15.20;99.90
4904;DHT22;2467;48.142;11.616;2023-08-31T01:55:10;15.20;99.90
4904;DHT22;2467;48.142;11.616;2023-08-31T01:55:45;15.20;99.90
4904;DHT22;2467;48.142;11.616;2023-08-31T01:56:17;15.30;99.90
4904;DHT22;2467;48.142;11.616;2023-08-31T01:56:49;15.20;99.90
4904;DHT22;2467;48.142;11.616;2023-08-31T01:57:21;15.30;99.90
4904;DHT22;2467;48.142;11.616;2023-08-31T01:57:53;15.30;99.90
4904;DHT22;2467;48.142;11.616;2023-08-31T01:58:26;15.30;99.90
4904;DHT22;2467;48.142;11.616;2023-08-31T01:58:58;15.30;99.90
4904;DHT22;2467;48.142;11.616;2023-08-31T01:59:30;15.30;99.90
4904;DHT22;2467;48.142;11.616;2023-08-31T02:00:02;15.30;99.90
4904;DHT22;2467;48.142;11.616;2023-08-31T02:00:37;15.30;99.90
4904;DHT22;2467;48.142;11.616;2023-08-31T02:01:10;15.30;99.90
4904;DHT22;2467;48.142;11.616;2023-08-31T02:01:42;15.30;99.90
4904;DHT22;2467;48.142;11.616;2023-08-31T02:02:14;15.30;99.90
4904;DHT22;2467;48.142;11.616;2023-08-31T02:02:47;15.30;99.90
4904;DHT22;2467;48.142;11.616;2023-08-31T02:03:19;15.40;99.90
4904;DHT22;2467;48.142;11.616;2023-08-31T02:03:51;15.40;99.90
4904;DHT22;2467;48.142;11.616;2023-08-31T02:04:22;15.40;99.90
4904;DHT22;2467;48.142;11.616;2023-08-31T02:04:55;15.40;99.90
4904;DHT22;2467;48.142;11.616;2023-08-31T02:05:27;15.50;99.90
4904;DHT22;2467;48.142;11.616;2023-08-31T02:05:59;15.40;99.90
4904;DHT22;2467;48.142;11.616;2023-08-31T02:06:32;15.40;99.90
4904;DHT22;2467;48.142;11.616;2023-08-31T02:07:04;15.40;99.90
4904;DHT22;2467;48.142;11.616;2023-08-31T02:07:36;15.50;99.90
4904;DHT22;2467;48.142;11.616;2023-08-31T02:08:08;15.50;99.90
4904;DHT22;2467;48.142;11.616;2023-08-31T02:08:40;15.50;99.90
4904;DHT22;2467;48.142;11.616;2023-08-31T02:09:13;15.50;99.90
4904;DHT22;2467;48.142;11.616;2023-08-31T02:09:46;15.50;99.90
4904;DHT22;2467;48.142;11.616;2023-08-31T02:10:18;15.50;99.90
4904;DHT22;2467;48.142;11.616;2023-08-31T02:10:51;15.50;99.90
4904;DHT22;2467;48.142;11.616;2023-08-31T02:11:23;15.50;99.90
4904;DHT22;2467;48.142;11.616;2023-08-31T02:11:55;15.60;99.90
4904;DHT22;2467;48.142;11.616;2023-08-31T02:12:27;15.50;99.90
4904;DHT22;2467;48.142;11.616;2023-08-31T02:13:00;15.50;99.90
4904;DHT22;2467;48.142;11.616;2023-08-31T02:13:31;15.50;99.90
4904;DHT22;2467;48.142;11.616;2023-08-31T02:14:04;15.50;99.90
4904;DHT22;2467;48.142;11.616;2023-08-31T02:14:36;15.40;99.90
4904;DHT22;2467;48.142;11.616;2023-08-31T02:15:10;15.40;99.90
4904;DHT22;2467;48.142;11.616;2023-08-31T02:15:42;15.40;99.90
4904;DHT22;2467;48.142;11.616;2023-08-31T02:16:14;15.40;99.90
4904;DHT22;2467;48.142;11.616;2023-08-31T02:16:47;15.40;99.90
4904;DHT22;2467;48.142;11.616;2023-08-31T02:17:19;15.40;99.90
4904;DHT22;2467;48.142;11.616;2023-08-31T02:17:51;15.50;99.90
4904;DHT22;2467;48.142;11.616;2023-08-31T02:18:23;15.50;99.90
4904;DHT22;2467;48.142;11.616;2023-08-31T02:18:55;15.50;99.90
4904;DHT22;2467;48.142;11.616;2023-08-31T02:19:28;15.40;99.90
4904;DHT22;2467;48.142;11.616;2023-08-31T02:20:00;15.40;99.90
4904;DHT22;2467;48.142;11.616;2023-08-31T02:20:33;15.40;99.90
4904;DHT22;2467;48.142;11.616;2023-08-31T02:21:05;15.40;99.90
4904;DHT22;2467;48.142;11.616;2023-08-31T02:21:39;15.40;99.90
4904;DHT22;2467;48.142;11.616;2023-08-31T02:22:10;15.40;99.90
4904;DHT22;2467;48.142;11.616;2023-08-31T02:22:42;15.40;99.90
4904;DHT22;2467;48.142;11.616;2023-08-31T02:23:14;15.30;99.90
4904;DHT22;2467;48.142;11.616;2023-08-31T02:23:47;15.30;99.90
4904;DHT22;2467;48.142;11.616;2023-08-31T02:24:19;15.40;99.90
4904;DHT22;2467;48.142;11.616;2023-08-31T02:24:52;15.30;99.90
4904;DHT22;2467;48.142;11.616;2023-08-31T02:25:25;15.30;99.90
4904;DHT22;2467;48.142;11.616;2023-08-31T02:25:59;15.30;99.90
4904;DHT22;2467;48.142;11.616;2023-08-31T02:26:31;15.40;99.90
4904;DHT22;2467;48.142;11.616;2023-08-31T02:27:03;15.30;99.90
4904;DHT22;2467;48.142;11.616;2023-08-31T02:27:36;15.40;99.90
4904;DHT22;2467;48.142;11.616;2023-08-31T02:28:08;15.40;99.90
4904;DHT22;2467;48.142;11.616;2023-08-31T02:28:40;15.40;99.90
4904;DHT22;2467;48.142;11.616;2023-08-31T02:29:12;15.40;99.90
4904;DHT22;2467;48.142;11.616;2023-08-31T02:29:45;15.50;99.90
4904;DHT22;2467;48.142;11.616;2023-08-31T02:30:17;15.40;99.90
4904;DHT22;2467;48.142;11.616;2023-08-31T02:30:57;15.50;99.90
4904;DHT22;2467;48.142;11.616;2023-08-31T02:31:29;15.50;99.90
4904;DHT22;2467;48.142;11.616;2023-08-31T02:32:04;15.40;99.90
4904;DHT22;2467;48.142;11.616;2023-08-31T02:32:36;15.40;99.90
4904;DHT22;2467;48.142;11.616;2023-08-31T02:33:08;15.40;99.90
4904;DHT22;2467;48.142;11.616;2023-08-31T02:33:41;15.30;99.90
4904;DHT22;2467;48.142;11.616;2023-08-31T02:34:14;15.30;99.90
4904;DHT22;2467;48.142;11.616;2023-08-31T02:34:46;15.30;99.90
4904;DHT22;2467;48.142;11.616;2023-08-31T02:35:18;15.20;99.90
4904;DHT22;2467;48.142;11.616;2023-08-31T02:35:50;15.20;99.90
4904;DHT22;2467;48.142;11.616;2023-08-31T02:36:23;15.20;99.90
4904;DHT22;2467;48.142;11.616;2023-08-31T02:36:55;15.20;99.90
4904;DHT22;2467;48.142;11.616;2023-08-31T02:37:26;15.20;99.90
4904;DHT22;2467;48.142;11.616;2023-08-31T02:37:58;15.10;99.90
4904;DHT22;2467;48.142;11.616;2023-08-31T02:38:31;15.10;99.90
4904;DHT22;2467;48.142;11.616;2023-08-31T02:39:03;15.10;99.90
4904;DHT22;2467;48.142;11.616;2023-08-31T02:39:35;15.00;99.90
4904;DHT22;2467;48.142;11.616;2023-08-31T02:40:10;15.00;99.90
4904;DHT22;2467;48.142;11.616;2023-08-31T02:40:45;15.00;99.90
4904;DHT22;2467;48.142;11.616;2023-08-31T02:41:18;15.00;99.90
4904;DHT22;2467;48.142;11.616;2023-08-31T02:41:50;15.00;99.90
4904;DHT22;2467;48.142;11.616;2023-08-31T02:42:22;15.00;99.90
4904;DHT22;2467;48.142;11.616;2023-08-31T02:42:54;15.00;99.90
4904;DHT22;2467;48.142;11.616;2023-08-31T02:43:26;14.90;99.90
4904;DHT22;2467;48.142;11.616;2023-08-31T02:44:00;14.90;99.90
4904;DHT22;2467;48.142;11.616;2023-08-31T02:44:32;14.90;99.90
4904;DHT22;2467;48.142;11.616;2023-08-31T02:45:06;14.90;99.90
4904;DHT22;2467;48.142;11.616;2023-08-31T02:45:38;14.80;99.90
4904;DHT22;2467;48.142;11.616;2023-08-31T02:46:09;14.70;99.90
4904;DHT22;2467;48.142;11.616;2023-08-31T02:46:42;14.70;99.90
4904;DHT22;2467;48.142;11.616;2023-08-31T02:47:14;14.60;99.90
4904;DHT22;2467;48.142;11.616;2023-08-31T02:47:46;14.60;99.90
4904;DHT22;2467;48.142;11.616;2023-08-31T02:48:21;14.60;99.90
4904;DHT22;2467;48.142;11.616;2023-08-31T02:48:53;14.60;99.90
4904;DHT22;2467;48.142;11.616;2023-08-31T02:49:26;14.60;99.90
4904;DHT22;2467;48.142;11.616;2023-08-31T02:49:58;14.60;99.90
4904;DHT22;2467;48.142;11.616;2023-08-31T02:50:31;14.60;99.90
4904;DHT22;2467;48.142;11.616;2023-08-31T02:51:03;14.50;99.90
4904;DHT22;2467;48.142;11.616;2023-08-31T02:51:36;14.50;99.90
4904;DHT22;2467;48.142;11.616;2023-08-31T02:52:07;14.60;99.90
4904;DHT22;2467;48.142;11.616;2023-08-31T02:52:40;14.50;99.90
4904;DHT22;2467;48.142;11.616;2023-08-31T02:53:12;14.50;99.90
4904;DHT22;2467;48.142;11.616;2023-08-31T02:53:45;14.50;99.90
4904;DHT22;2467;48.142;11.616;2023-08-31T02:54:17;14.50;99.90
4904;DHT22;2467;48.142;11.616;2023-08-31T02:54:50;14.50;99.90
4904;DHT22;2467;48.142;11.616;2023-08-31T02:55:24;14.50;99.90
4904;DHT22;2467;48.142;11.616;2023-08-31T02:55:57;14.50;99.90
4904;DHT22;2467;48.142;11.616;2023-08-31T02:56:29;14.50;99.90
4904;DHT22;2467;48.142;11.616;2023-08-31T02:57:01;14.50;99.90
4904;DHT22;2467;48.142;11.616;2023-08-31T02:57:33;14.40;99.90
4904;DHT22;2467;48.142;11.616;2023-08-31T02:58:06;14.40;99.90
4904;DHT22;2467;48.142;11.616;2023-08-31T02:58:38;14.50;99.90
4904;DHT22;2467;48.142;11.616;2023-08-31T02:59:11;14.40;99.90
4904;DHT22;2467;48.142;11.616;2023-08-31T02:59:43;14.50;99.90
4904;DHT22;2467;48.142;11.616;2023-08-31T03:00:18;14.50;99.90
4904;DHT22;2467;48.142;11.616;2023-08-31T03:00:53;14.50;99.90
4904;DHT22;2467;48.142;11.616;2023-08-31T03:01:25;14.50;99.90
4904;DHT22;2467;48.142;11.616;2023-08-31T03:01:58;14.40;99.90
4904;DHT22;2467;48.142;11.616;2023-08-31T03:02:31;14.40;99.90
4904;DHT22;2467;48.142;11.616;2023-08-31T03:03:03;14.40;99.90
4904;DHT22;2467;48.142;11.616;2023-08-31T03:03:36;14.50;99.90
4904;DHT22;2467;48.142;11.616;2023-08-31T03:04:08;14.50;99.90
4904;DHT22;2467;48.142;11.616;2023-08-31T03:04:40;14.50;99.90
4904;DHT22;2467;48.142;11.616;2023-08-31T03:05:12;14.50;99.90
4904;DHT22;2467;48.142;11.616;2023-08-31T03:05:45;14.50;99.90
4904;DHT22;2467;48.142;11.616;2023-08-31T03:06:17;14.50;99.90
4904;DHT22;2467;48.142;11.616;2023-08-31T03:06:49;14.50;99.90
4904;DHT22;2467;48.142;11.616;2023-08-31T03:07:21;14.50;99.90
4904;DHT22;2467;48.142;11.616;2023-08-31T03:07:53;14.50;99.90
4904;DHT22;2467;48.142;11.616;2023-08-31T03:08:25;14.50;99.90
4904;DHT22;2467;48.142;11.616;2023-08-31T03:08:57;14.50;99.90
4904;DHT22;2467;48.142;11.616;2023-08-31T03:09:29;14.50;99.90
4904;DHT22;2467;48.142;11.616;2023-08-31T03:10:02;14.50;99.90
4904;DHT22;2467;48.142;11.616;2023-08-31T03:10:36;14.50;99.90
4904;DHT22;2467;48.142;11.616;2023-08-31T03:11:08;14.50;99.90
4904;DHT22;2467;48.142;11.616;2023-08-31T03:11:40;14.50;99.90
4904;DHT22;2467;48.142;11.616;2023-08-31T03:12:13;14.60;99.90
4904;DHT22;2467;48.142;11.616;2023-08-31T03:12:45;14.60;99.90
4904;DHT22;2467;48.142;11.616;2023-08-31T03:13:17;14.60;99.90
4904;DHT22;2467;48.142;11.616;2023-08-31T03:13:50;14.60;99.90
4904;DHT22;2467;48.142;11.616;2023-08-31T03:14:22;14.60;99.90
4904;DHT22;2467;48.142;11.616;2023-08-31T03:14:54;14.50;99.90
4904;DHT22;2467;48.142;11.616;2023-08-31T03:15:26;14.50;99.90
4904;DHT22;2467;48.142;11.616;2023-08-31T03:15:59;14.50;99.90
4904;DHT22;2467;48.142;11.616;2023-08-31T03:16:31;14.40;99.90
4904;DHT22;2467;48.142;11.616;2023-08-31T03:17:04;14.40;99.90
4904;DHT22;2467;48.142;11.616;2023-08-31T03:17:36;14.40;99.90
4904;DHT22;2467;48.142;11.616;2023-08-31T03:18:09;14.40;99.90
4904;DHT22;2467;48.142;11.616;2023-08-31T03:18:41;14.40;99.90
4904;DHT22;2467;48.142;11.616;2023-08-31T03:19:13;14.40;99.90
4904;DHT22;2467;48.142;11.616;2023-08-31T03:19:45;14.30;99.90
4904;DHT22;2467;48.142;11.616;2023-08-31T03:20:18;14.30;99.90
4904;DHT22;2467;48.142;11.616;2023-08-31T03:20:50;14.30;99.90
4904;DHT22;2467;48.142;11.616;2023-08-31T03:21:21;14.30;99.90
4904;DHT22;2467;48.142;11.616;2023-08-31T03:21:53;14.30;99.90
4904;DHT22;2467;48.142;11.616;2023-08-31T03:22:26;14.30;99.90
4904;DHT22;2467;48.142;11.616;2023-08-31T03:22:58;14.30;99.90
4904;DHT22;2467;48.142;11.616;2023-08-31T03:23:30;14.30;99.90
4904;DHT22;2467;48.142;11.616;2023-08-31T03:24:02;14.30;99.90
4904;DHT22;2467;48.142;11.616;2023-08-31T03:24:35;14.30;99.90
4904;DHT22;2467;48.142;11.616;2023-08-31T03:25:07;14.30;99.90
4904;DHT22;2467;48.142;11.616;2023-08-31T03:25:41;14.30;99.90
4904;DHT22;2467;48.142;11.616;2023-08-31T03:26:13;14.30;99.90
4904;DHT22;2467;48.142;11.616;2023-08-31T03:26:46;14.20;99.90
4904;DHT22;2467;48.142;11.616;2023-08-31T03:27:18;14.20;99.90
4904;DHT22;2467;48.142;11.616;2023-08-31T03:27:51;14.20;99.90
4904;DHT22;2467;48.142;11.616;2023-08-31T03:28:22;14.20;99.90
4904;DHT22;2467;48.142;11.616;2023-08-31T03:28:55;14.10;99.90
4904;DHT22;2467;48.142;11.616;2023-08-31T03:29:27;14.10;99.90
4904;DHT22;2467;48.142;11.616;2023-08-31T03:30:00;14.10;99.90
4904;DHT22;2467;48.142;11.616;2023-08-31T03:30:32;14.10;99.90
4904;DHT22;2467;48.142;11.616;2023-08-31T03:31:05;14.10;99.90
4904;DHT22;2467;48.142;11.616;2023-08-31T03:31:37;14.10;99.90
4904;DHT22;2467;48.142;11.616;2023-08-31T03:32:09;14.10;99.90
4904;DHT22;2467;48.142;11.616;2023-08-31T03:32:41;14.10;99.90
4904;DHT22;2467;48.142;11.616;2023-08-31T03:33:14;14.10;99.90
4904;DHT22;2467;48.142;11.616;2023-08-31T03:33:46;14.10;99.90
4904;DHT22;2467;48.142;11.616;2023-08-31T03:34:18;14.10;99.90